sensor_id;sensor_type;location;lat;lon;timestamp;P1;durP1;ratioP1;P2;durP2;ratioP2
57707;SDS011;43540;51.690;9.562;2023-11-19T00:01:33;4.35;;;2.63;;
57707;SDS011;43540;51.690;9.562;2023-11-19T00:04:00;4.32;;;2.60;;
57707;SDS011;43540;51.690;9.562;2023-11-19T00:06:27;4.40;;;2.60;;
57707;SDS011;43540;51.690;9.562;2023-11-19T00:08:54;4.50;;;2.92;;
57707;SDS011;43540;51.690;9.562;2023-11-19T00:11:21;4.72;;;3.08;;
57707;SDS011;43540;51.690;9.562;2023-11-19T00:13:47;4.80;;;2.80;;
57707;SDS011;43540;51.690;9.562;2023-11-19T00:16:14;4.10;;;2.60;;
57707;SDS011;43540;51.690;9.562;2023-11-19T00:18:42;4.10;;;2.85;;
57707;SDS011;43540;51.690;9.562;2023-11-19T00:21:09;4.43;;;2.88;;
57707;SDS011;43540;51.690;9.562;2023-11-19T00:23:37;4.07;;;3.13;;
57707;SDS011;43540;51.690;9.562;2023-11-19T00:26:04;5.55;;;3.25;;
57707;SDS011;43540;51.690;9.562;2023-11-19T00:28:32;5.38;;;3.28;;
57707;SDS011;43540;51.690;9.562;2023-11-19T00:31:00;5.22;;;3.40;;
57707;SDS011;43540;51.690;9.562;2023-11-19T00:33:27;5.28;;;3.30;;
57707;SDS011;43540;51.690;9.562;2023-11-19T00:35:54;6.10;;;3.80;;
57707;SDS011;43540;51.690;9.562;2023-11-19T00:38:22;4.75;;;3.15;;
57707;SDS011;43540;51.690;9.562;2023-11-19T00:40:48;4.68;;;2.97;;
57707;SDS011;43540;51.690;9.562;2023-11-19T00:43:15;5.10;;;3.28;;
57707;SDS011;43540;51.690;9.562;2023-11-19T00:45:42;5.43;;;3.47;;
57707;SDS011;43540;51.690;9.562;2023-11-19T00:48:09;6.38;;;3.50;;
57707;SDS011;43540;51.690;9.562;2023-11-19T00:50:36;5.72;;;3.80;;
57707;SDS011;43540;51.690;9.562;2023-11-19T00:53:04;7.82;;;3.95;;
57707;SDS011;43540;51.690;9.562;2023-11-19T00:55:31;9.73;;;3.15;;
57707;SDS011;43540;51.690;9.562;2023-11-19T00:57:58;5.78;;;3.40;;
57707;SDS011;43540;51.690;9.562;2023-11-19T01:00:25;6.53;;;3.45;;
57707;SDS011;43540;51.690;9.562;2023-11-19T01:02:56;5.55;;;3.42;;
57707;SDS011;43540;51.690;9.562;2023-11-19T01:05:23;7.00;;;3.72;;
57707;SDS011;43540;51.690;9.562;2023-11-19T01:07:50;6.70;;;3.90;;
57707;SDS011;43540;51.690;9.562;2023-11-19T01:10:20;5.82;;;3.75;;
57707;SDS011;43540;51.690;9.562;2023-11-19T01:12:46;5.95;;;3.10;;
57707;SDS011;43540;51.690;9.562;2023-11-19T01:15:13;6.13;;;3.80;;
57707;SDS011;43540;51.690;9.562;2023-11-19T01:17:40;6.40;;;3.40;;
57707;SDS011;43540;51.690;9.562;2023-11-19T01:20:18;6.65;;;3.83;;
57707;SDS011;43540;51.690;9.562;2023-11-19T01:22:46;7.10;;;3.65;;
57707;SDS011;43540;51.690;9.562;2023-11-19T01:25:15;5.68;;;3.58;;
57707;SDS011;43540;51.690;9.562;2023-11-19T01:27:42;7.57;;;4.28;;
57707;SDS011;43540;51.690;9.562;2023-11-19T01:30:09;6.28;;;3.88;;
57707;SDS011;43540;51.690;9.562;2023-11-19T01:32:39;7.20;;;4.30;;
57707;SDS011;43540;51.690;9.562;2023-11-19T01:35:07;6.63;;;4.10;;
57707;SDS011;43540;51.690;9.562;2023-11-19T01:37:37;7.95;;;4.25;;
57707;SDS011;43540;51.690;9.562;2023-11-19T01:40:03;6.57;;;4.00;;
57707;SDS011;43540;51.690;9.562;2023-11-19T01:42:36;6.75;;;3.95;;
57707;SDS011;43540;51.690;9.562;2023-11-19T01:45:04;6.85;;;3.60;;
57707;SDS011;43540;51.690;9.562;2023-11-19T01:47:33;7.38;;;4.00;;
57707;SDS011;43540;51.690;9.562;2023-11-19T01:50:02;7.20;;;4.00;;
57707;SDS011;43540;51.690;9.562;2023-11-19T01:52:35;6.28;;;3.75;;
57707;SDS011;43540;51.690;9.562;2023-11-19T01:55:06;6.60;;;3.95;;
57707;SDS011;43540;51.690;9.562;2023-11-19T01:57:36;6.40;;;3.83;;
57707;SDS011;43540;51.690;9.562;2023-11-19T02:00:05;8.05;;;3.97;;
57707;SDS011;43540;51.690;9.562;2023-11-19T02:02:38;6.45;;;3.80;;
57707;SDS011;43540;51.690;9.562;2023-11-19T02:05:06;7.43;;;3.72;;
57707;SDS011;43540;51.690;9.562;2023-11-19T02:07:33;6.45;;;3.75;;
57707;SDS011;43540;51.690;9.562;2023-11-19T02:10:00;5.88;;;3.50;;
57707;SDS011;43540;51.690;9.562;2023-11-19T02:12:28;4.80;;;3.00;;
57707;SDS011;43540;51.690;9.562;2023-11-19T02:14:54;6.85;;;2.88;;
57707;SDS011;43540;51.690;9.562;2023-11-19T02:17:31;3.95;;;2.80;;
57707;SDS011;43540;51.690;9.562;2023-11-19T02:19:58;5.28;;;2.72;;
57707;SDS011;43540;51.690;9.562;2023-11-19T02:22:24;3.15;;;2.20;;
57707;SDS011;43540;51.690;9.562;2023-11-19T02:24:51;3.63;;;2.17;;
57707;SDS011;43540;51.690;9.562;2023-11-19T02:27:30;4.80;;;2.60;;
57707;SDS011;43540;51.690;9.562;2023-11-19T02:30:16;3.95;;;2.30;;
57707;SDS011;43540;51.690;9.562;2023-11-19T02:32:43;3.53;;;2.60;;
57707;SDS011;43540;51.690;9.562;2023-11-19T02:35:09;3.60;;;2.45;;
57707;SDS011;43540;51.690;9.562;2023-11-19T02:37:37;5.50;;;2.95;;
57707;SDS011;43540;51.690;9.562;2023-11-19T02:40:05;4.35;;;2.78;;
57707;SDS011;43540;51.690;9.562;2023-11-19T02:42:35;4.85;;;2.95;;
57707;SDS011;43540;51.690;9.562;2023-11-19T02:45:02;4.50;;;2.97;;
57707;SDS011;43540;51.690;9.562;2023-11-19T02:47:33;3.60;;;2.58;;
57707;SDS011;43540;51.690;9.562;2023-11-19T02:50:00;4.97;;;3.08;;
57707;SDS011;43540;51.690;9.562;2023-11-19T02:52:27;4.10;;;2.67;;
57707;SDS011;43540;51.690;9.562;2023-11-19T02:54:55;4.75;;;2.88;;
57707;SDS011;43540;51.690;9.562;2023-11-19T02:57:30;4.45;;;2.50;;
57707;SDS011;43540;51.690;9.562;2023-11-19T03:00:00;4.00;;;2.88;;
57707;SDS011;43540;51.690;9.562;2023-11-19T03:02:26;4.45;;;2.70;;
57707;SDS011;43540;51.690;9.562;2023-11-19T03:05:00;3.92;;;2.70;;
57707;SDS011;43540;51.690;9.562;2023-11-19T03:07:26;3.78;;;2.67;;
57707;SDS011;43540;51.690;9.562;2023-11-19T03:09:53;8.35;;;2.97;;
57707;SDS011;43540;51.690;9.562;2023-11-19T03:12:20;3.83;;;2.63;;
57707;SDS011;43540;51.690;9.562;2023-11-19T03:14:47;4.45;;;2.65;;
57707;SDS011;43540;51.690;9.562;2023-11-19T03:17:17;10.13;;;3.15;;
57707;SDS011;43540;51.690;9.562;2023-11-19T03:19:43;4.90;;;2.88;;
57707;SDS011;43540;51.690;9.562;2023-11-19T03:22:10;5.70;;;3.10;;
57707;SDS011;43540;51.690;9.562;2023-11-19T03:24:37;5.50;;;2.70;;
57707;SDS011;43540;51.690;9.562;2023-11-19T03:27:04;4.15;;;2.80;;
57707;SDS011;43540;51.690;9.562;2023-11-19T03:29:31;3.72;;;2.72;;
57707;SDS011;43540;51.690;9.562;2023-11-19T03:31:57;5.22;;;2.30;;
57707;SDS011;43540;51.690;9.562;2023-11-19T03:34:24;4.07;;;2.95;;
57707;SDS011;43540;51.690;9.562;2023-11-19T03:36:51;4.40;;;2.70;;
57707;SDS011;43540;51.690;9.562;2023-11-19T03:39:17;4.47;;;2.58;;
57707;SDS011;43540;51.690;9.562;2023-11-19T03:41:47;4.35;;;2.50;;
57707;SDS011;43540;51.690;9.562;2023-11-19T03:44:14;4.03;;;2.63;;
57707;SDS011;43540;51.690;9.562;2023-11-19T03:46:40;3.92;;;2.60;;
57707;SDS011;43540;51.690;9.562;2023-11-19T03:49:07;4.15;;;2.70;;
57707;SDS011;43540;51.690;9.562;2023-11-19T03:51:34;3.88;;;2.72;;
57707;SDS011;43540;51.690;9.562;2023-11-19T03:54:01;4.68;;;3.08;;
57707;SDS011;43540;51.690;9.562;2023-11-19T03:56:27;4.10;;;2.65;;
57707;SDS011;43540;51.690;9.562;2023-11-19T03:58:54;3.63;;;2.50;;
57707;SDS011;43540;51.690;9.562;2023-11-19T04:01:21;4.63;;;2.42;;
57707;SDS011;43540;51.690;9.562;2023-11-19T04:03:48;3.30;;;2.00;;
57707;SDS011;43540;51.690;9.562;2023-11-19T04:06:16;4.47;;;2.17;;
57707;SDS011;43540;51.690;9.562;2023-11-19T04:08:43;3.30;;;1.83;;
57707;SDS011;43540;51.690;9.562;2023-11-19T04:11:10;3.40;;;2.10;;
57707;SDS011;43540;51.690;9.562;2023-11-19T04:13:37;3.33;;;2.13;;
57707;SDS011;43540;51.690;9.562;2023-11-19T04:16:04;2.45;;;2.00;;
57707;SDS011;43540;51.690;9.562;2023-11-19T04:18:31;4.60;;;2.30;;
57707;SDS011;43540;51.690;9.562;2023-11-19T04:21:00;4.25;;;2.60;;
57707;SDS011;43540;51.690;9.562;2023-11-19T04:23:27;3.80;;;2.53;;
57707;SDS011;43540;51.690;9.562;2023-11-19T04:25:54;4.13;;;2.63;;
57707;SDS011;43540;51.690;9.562;2023-11-19T04:28:20;4.75;;;2.97;;
57707;SDS011;43540;51.690;9.562;2023-11-19T04:30:47;4.97;;;2.58;;
57707;SDS011;43540;51.690;9.562;2023-11-19T04:33:14;3.83;;;2.60;;
57707;SDS011;43540;51.690;9.562;2023-11-19T04:35:43;5.97;;;3.00;;
57707;SDS011;43540;51.690;9.562;2023-11-19T04:38:21;4.13;;;3.00;;
57707;SDS011;43540;51.690;9.562;2023-11-19T04:40:47;4.25;;;2.80;;
57707;SDS011;43540;51.690;9.562;2023-11-19T04:43:14;5.60;;;3.28;;
57707;SDS011;43540;51.690;9.562;2023-11-19T04:45:41;6.35;;;3.28;;
57707;SDS011;43540;51.690;9.562;2023-11-19T04:48:08;8.90;;;3.50;;
57707;SDS011;43540;51.690;9.562;2023-11-19T04:50:35;6.05;;;3.60;;
57707;SDS011;43540;51.690;9.562;2023-11-19T04:53:02;5.75;;;3.33;;
57707;SDS011;43540;51.690;9.562;2023-11-19T04:55:29;6.85;;;3.40;;
57707;SDS011;43540;51.690;9.562;2023-11-19T04:57:56;5.55;;;3.33;;
57707;SDS011;43540;51.690;9.562;2023-11-19T05:00:23;7.32;;;3.95;;
57707;SDS011;43540;51.690;9.562;2023-11-19T05:02:49;7.30;;;3.90;;
57707;SDS011;43540;51.690;9.562;2023-11-19T05:05:16;5.70;;;3.63;;
57707;SDS011;43540;51.690;9.562;2023-11-19T05:07:44;6.43;;;3.60;;
57707;SDS011;43540;51.690;9.562;2023-11-19T05:10:10;5.35;;;3.00;;
57707;SDS011;43540;51.690;9.562;2023-11-19T05:12:43;5.53;;;3.33;;
57707;SDS011;43540;51.690;9.562;2023-11-19T05:15:12;5.15;;;3.03;;
57707;SDS011;43540;51.690;9.562;2023-11-19T05:17:43;5.97;;;3.22;;
57707;SDS011;43540;51.690;9.562;2023-11-19T05:20:17;5.60;;;3.08;;
57707;SDS011;43540;51.690;9.562;2023-11-19T05:22:44;6.90;;;3.08;;
57707;SDS011;43540;51.690;9.562;2023-11-19T05:25:17;4.65;;;3.00;;
57707;SDS011;43540;51.690;9.562;2023-11-19T05:27:46;5.03;;;3.22;;
57707;SDS011;43540;51.690;9.562;2023-11-19T05:30:13;5.80;;;2.95;;
57707;SDS011;43540;51.690;9.562;2023-11-19T05:32:40;7.75;;;3.10;;
57707;SDS011;43540;51.690;9.562;2023-11-19T05:35:07;8.45;;;3.15;;
57707;SDS011;43540;51.690;9.562;2023-11-19T05:37:34;4.45;;;3.00;;
57707;SDS011;43540;51.690;9.562;2023-11-19T05:40:01;5.30;;;2.80;;
57707;SDS011;43540;51.690;9.562;2023-11-19T05:42:30;4.25;;;2.67;;
57707;SDS011;43540;51.690;9.562;2023-11-19T05:44:57;4.75;;;2.90;;
57707;SDS011;43540;51.690;9.562;2023-11-19T05:47:24;6.57;;;2.50;;
57707;SDS011;43540;51.690;9.562;2023-11-19T05:49:51;3.45;;;2.50;;
57707;SDS011;43540;51.690;9.562;2023-11-19T05:52:17;2.50;;;1.80;;
57707;SDS011;43540;51.690;9.562;2023-11-19T05:54:50;3.35;;;2.05;;
57707;SDS011;43540;51.690;9.562;2023-11-19T05:57:18;2.80;;;2.00;;
57707;SDS011;43540;51.690;9.562;2023-11-19T05:59:50;3.85;;;2.35;;
57707;SDS011;43540;51.690;9.562;2023-11-19T06:02:16;2.63;;;1.88;;
57707;SDS011;43540;51.690;9.562;2023-11-19T06:04:43;2.83;;;2.00;;
57707;SDS011;43540;51.690;9.562;2023-11-19T06:07:13;2.50;;;1.77;;
57707;SDS011;43540;51.690;9.562;2023-11-19T06:09:41;3.15;;;1.92;;
57707;SDS011;43540;51.690;9.562;2023-11-19T06:12:08;2.15;;;1.80;;
57707;SDS011;43540;51.690;9.562;2023-11-19T06:14:35;4.28;;;1.70;;
57707;SDS011;43540;51.690;9.562;2023-11-19T06:17:02;2.80;;;1.83;;
57707;SDS011;43540;51.690;9.562;2023-11-19T06:19:31;3.33;;;1.67;;
57707;SDS011;43540;51.690;9.562;2023-11-19T06:21:57;4.65;;;2.00;;
57707;SDS011;43540;51.690;9.562;2023-11-19T06:24:24;4.90;;;2.25;;
57707;SDS011;43540;51.690;9.562;2023-11-19T06:26:54;6.78;;;2.03;;
57707;SDS011;43540;51.690;9.562;2023-11-19T06:29:20;3.25;;;2.00;;
57707;SDS011;43540;51.690;9.562;2023-11-19T06:31:47;3.25;;;1.63;;
57707;SDS011;43540;51.690;9.562;2023-11-19T06:34:15;3.72;;;1.52;;
57707;SDS011;43540;51.690;9.562;2023-11-19T06:36:42;4.18;;;1.55;;
57707;SDS011;43540;51.690;9.562;2023-11-19T06:39:10;2.85;;;1.70;;
57707;SDS011;43540;51.690;9.562;2023-11-19T06:41:43;7.05;;;2.08;;
57707;SDS011;43540;51.690;9.562;2023-11-19T06:44:11;3.45;;;2.10;;
57707;SDS011;43540;51.690;9.562;2023-11-19T06:46:38;9.55;;;5.47;;
57707;SDS011;43540;51.690;9.562;2023-11-19T06:49:05;9.98;;;4.53;;
57707;SDS011;43540;51.690;9.562;2023-11-19T06:51:33;7.05;;;3.47;;
57707;SDS011;43540;51.690;9.562;2023-11-19T06:54:00;6.72;;;3.38;;
57707;SDS011;43540;51.690;9.562;2023-11-19T06:56:27;5.50;;;2.30;;
57707;SDS011;43540;51.690;9.562;2023-11-19T06:58:54;3.97;;;2.10;;
57707;SDS011;43540;51.690;9.562;2023-11-19T07:01:33;4.25;;;2.70;;
57707;SDS011;43540;51.690;9.562;2023-11-19T07:04:21;5.18;;;2.30;;
57707;SDS011;43540;51.690;9.562;2023-11-19T07:06:48;5.45;;;2.83;;
57707;SDS011;43540;51.690;9.562;2023-11-19T07:09:14;4.10;;;2.72;;
57707;SDS011;43540;51.690;9.562;2023-11-19T07:11:44;6.20;;;3.13;;
57707;SDS011;43540;51.690;9.562;2023-11-19T07:14:11;7.55;;;2.78;;
57707;SDS011;43540;51.690;9.562;2023-11-19T07:16:40;6.35;;;2.83;;
57707;SDS011;43540;51.690;9.562;2023-11-19T07:19:38;7.47;;;3.67;;
57707;SDS011;43540;51.690;9.562;2023-11-19T07:22:25;10.40;;;3.92;;
57707;SDS011;43540;51.690;9.562;2023-11-19T07:24:52;13.63;;;5.88;;
57707;SDS011;43540;51.690;9.562;2023-11-19T07:27:22;9.45;;;4.55;;
57707;SDS011;43540;51.690;9.562;2023-11-19T07:29:51;19.30;;;8.68;;
57707;SDS011;43540;51.690;9.562;2023-11-19T07:32:24;20.70;;;6.78;;
57707;SDS011;43540;51.690;9.562;2023-11-19T07:34:51;20.77;;;5.55;;
57707;SDS011;43540;51.690;9.562;2023-11-19T07:37:17;18.95;;;6.80;;
57707;SDS011;43540;51.690;9.562;2023-11-19T07:39:44;19.85;;;5.72;;
57707;SDS011;43540;51.690;9.562;2023-11-19T07:42:11;15.05;;;5.40;;
57707;SDS011;43540;51.690;9.562;2023-11-19T07:44:37;17.95;;;6.15;;
57707;SDS011;43540;51.690;9.562;2023-11-19T07:47:04;18.80;;;5.50;;
57707;SDS011;43540;51.690;9.562;2023-11-19T07:49:31;23.25;;;7.22;;
57707;SDS011;43540;51.690;9.562;2023-11-19T07:51:57;27.65;;;6.55;;
57707;SDS011;43540;51.690;9.562;2023-11-19T07:54:25;22.95;;;4.93;;
57707;SDS011;43540;51.690;9.562;2023-11-19T07:56:51;20.63;;;5.65;;
57707;SDS011;43540;51.690;9.562;2023-11-19T07:59:21;19.58;;;4.75;;
57707;SDS011;43540;51.690;9.562;2023-11-19T08:01:48;24.48;;;5.40;;
57707;SDS011;43540;51.690;9.562;2023-11-19T08:04:14;24.77;;;4.53;;
57707;SDS011;43540;51.690;9.562;2023-11-19T08:06:41;17.83;;;4.40;;
57707;SDS011;43540;51.690;9.562;2023-11-19T08:09:08;14.27;;;3.80;;
57707;SDS011;43540;51.690;9.562;2023-11-19T08:11:43;20.20;;;4.80;;
57707;SDS011;43540;51.690;9.562;2023-11-19T08:14:10;17.27;;;4.28;;
57707;SDS011;43540;51.690;9.562;2023-11-19T08:16:38;18.92;;;3.88;;
57707;SDS011;43540;51.690;9.562;2023-11-19T08:19:05;18.35;;;4.60;;
57707;SDS011;43540;51.690;9.562;2023-11-19T08:21:35;15.75;;;4.15;;
57707;SDS011;43540;51.690;9.562;2023-11-19T08:24:02;24.35;;;4.32;;
57707;SDS011;43540;51.690;9.562;2023-11-19T08:26:28;21.85;;;4.82;;
57707;SDS011;43540;51.690;9.562;2023-11-19T08:28:55;26.65;;;6.63;;
57707;SDS011;43540;51.690;9.562;2023-11-19T08:31:24;24.48;;;4.68;;
57707;SDS011;43540;51.690;9.562;2023-11-19T08:33:52;17.02;;;4.20;;
57707;SDS011;43540;51.690;9.562;2023-11-19T08:36:18;20.98;;;4.90;;
57707;SDS011;43540;51.690;9.562;2023-11-19T08:38:45;22.25;;;4.85;;
57707;SDS011;43540;51.690;9.562;2023-11-19T08:41:13;21.27;;;4.90;;
57707;SDS011;43540;51.690;9.562;2023-11-19T08:43:40;19.92;;;5.22;;
57707;SDS011;43540;51.690;9.562;2023-11-19T08:46:11;14.95;;;4.43;;
57707;SDS011;43540;51.690;9.562;2023-11-19T08:48:38;17.05;;;4.25;;
57707;SDS011;43540;51.690;9.562;2023-11-19T08:51:06;20.65;;;4.25;;
57707;SDS011;43540;51.690;9.562;2023-11-19T08:53:35;21.65;;;4.80;;
57707;SDS011;43540;51.690;9.562;2023-11-19T08:56:02;20.60;;;4.82;;
57707;SDS011;43540;51.690;9.562;2023-11-19T08:58:30;15.45;;;4.28;;
57707;SDS011;43540;51.690;9.562;2023-11-19T09:00:57;15.73;;;4.40;;
57707;SDS011;43540;51.690;9.562;2023-11-19T09:03:24;24.00;;;4.55;;
57707;SDS011;43540;51.690;9.562;2023-11-19T09:05:53;19.48;;;4.53;;
57707;SDS011;43540;51.690;9.562;2023-11-19T09:08:19;22.27;;;5.15;;
57707;SDS011;43540;51.690;9.562;2023-11-19T09:10:46;18.23;;;4.30;;
57707;SDS011;43540;51.690;9.562;2023-11-19T09:13:13;17.02;;;4.05;;
57707;SDS011;43540;51.690;9.562;2023-11-19T09:15:40;16.95;;;4.60;;
57707;SDS011;43540;51.690;9.562;2023-11-19T09:18:08;16.70;;;3.88;;
57707;SDS011;43540;51.690;9.562;2023-11-19T09:20:36;23.42;;;4.65;;
57707;SDS011;43540;51.690;9.562;2023-11-19T09:23:05;14.10;;;4.50;;
57707;SDS011;43540;51.690;9.562;2023-11-19T09:25:33;21.90;;;5.28;;
57707;SDS011;43540;51.690;9.562;2023-11-19T09:28:03;16.60;;;4.60;;
57707;SDS011;43540;51.690;9.562;2023-11-19T09:30:29;16.75;;;4.85;;
57707;SDS011;43540;51.690;9.562;2023-11-19T09:33:00;25.33;;;4.97;;
57707;SDS011;43540;51.690;9.562;2023-11-19T09:35:27;15.20;;;4.50;;
57707;SDS011;43540;51.690;9.562;2023-11-19T09:37:53;19.15;;;4.97;;
57707;SDS011;43540;51.690;9.562;2023-11-19T09:40:20;20.48;;;5.10;;
57707;SDS011;43540;51.690;9.562;2023-11-19T09:42:50;18.27;;;4.75;;
57707;SDS011;43540;51.690;9.562;2023-11-19T09:45:17;19.83;;;5.22;;
57707;SDS011;43540;51.690;9.562;2023-11-19T09:47:47;18.35;;;4.65;;
57707;SDS011;43540;51.690;9.562;2023-11-19T09:50:15;19.08;;;5.10;;
57707;SDS011;43540;51.690;9.562;2023-11-19T09:52:44;19.83;;;4.60;;
57707;SDS011;43540;51.690;9.562;2023-11-19T09:55:13;16.92;;;4.60;;
57707;SDS011;43540;51.690;9.562;2023-11-19T09:58:07;22.85;;;4.47;;
57707;SDS011;43540;51.690;9.562;2023-11-19T10:00:34;15.38;;;4.13;;
57707;SDS011;43540;51.690;9.562;2023-11-19T10:03:01;18.73;;;4.80;;
57707;SDS011;43540;51.690;9.562;2023-11-19T10:05:31;15.50;;;4.80;;
57707;SDS011;43540;51.690;9.562;2023-11-19T10:07:59;19.77;;;4.85;;
57707;SDS011;43540;51.690;9.562;2023-11-19T10:10:25;16.17;;;4.43;;
57707;SDS011;43540;51.690;9.562;2023-11-19T10:12:52;17.33;;;4.15;;
57707;SDS011;43540;51.690;9.562;2023-11-19T10:15:22;19.33;;;3.95;;
57707;SDS011;43540;51.690;9.562;2023-11-19T10:17:51;13.27;;;4.03;;
57707;SDS011;43540;51.690;9.562;2023-11-19T10:20:18;16.70;;;4.20;;
57707;SDS011;43540;51.690;9.562;2023-11-19T10:22:56;19.25;;;4.68;;
57707;SDS011;43540;51.690;9.562;2023-11-19T10:26:04;18.08;;;4.63;;
57707;SDS011;43540;51.690;9.562;2023-11-19T10:28:41;22.02;;;5.70;;
57707;SDS011;43540;51.690;9.562;2023-11-19T10:31:32;16.75;;;4.10;;
57707;SDS011;43540;51.690;9.562;2023-11-19T10:33:58;22.08;;;5.05;;
57707;SDS011;43540;51.690;9.562;2023-11-19T10:36:43;20.08;;;5.38;;
57707;SDS011;43540;51.690;9.562;2023-11-19T10:39:10;20.05;;;4.63;;
57707;SDS011;43540;51.690;9.562;2023-11-19T10:41:36;17.08;;;4.05;;
57707;SDS011;43540;51.690;9.562;2023-11-19T10:44:03;20.08;;;4.53;;
57707;SDS011;43540;51.690;9.562;2023-11-19T10:46:50;16.50;;;4.32;;
57707;SDS011;43540;51.690;9.562;2023-11-19T10:49:16;21.63;;;4.03;;
57707;SDS011;43540;51.690;9.562;2023-11-19T10:51:45;19.38;;;4.50;;
57707;SDS011;43540;51.690;9.562;2023-11-19T10:54:15;16.08;;;3.90;;
57707;SDS011;43540;51.690;9.562;2023-11-19T10:56:45;21.05;;;4.47;;
57707;SDS011;43540;51.690;9.562;2023-11-19T10:59:28;17.40;;;4.00;;
57707;SDS011;43540;51.690;9.562;2023-11-19T11:02:14;17.08;;;3.95;;
57707;SDS011;43540;51.690;9.562;2023-11-19T11:05:09;16.73;;;4.70;;
57707;SDS011;43540;51.690;9.562;2023-11-19T11:07:55;19.63;;;4.90;;
57707;SDS011;43540;51.690;9.562;2023-11-19T11:13:38;19.85;;;4.20;;
57707;SDS011;43540;51.690;9.562;2023-11-19T11:16:12;16.27;;;4.28;;
57707;SDS011;43540;51.690;9.562;2023-11-19T11:18:59;18.73;;;4.43;;
57707;SDS011;43540;51.690;9.562;2023-11-19T11:21:53;16.10;;;3.78;;
57707;SDS011;43540;51.690;9.562;2023-11-19T11:29:02;16.52;;;3.75;;
57707;SDS011;43540;51.690;9.562;2023-11-19T11:37:49;17.45;;;3.42;;
57707;SDS011;43540;51.690;9.562;2023-11-19T11:40:21;17.42;;;4.25;;
57707;SDS011;43540;51.690;9.562;2023-11-19T11:42:50;19.45;;;4.35;;
57707;SDS011;43540;51.690;9.562;2023-11-19T11:45:34;18.17;;;4.22;;
57707;SDS011;43540;51.690;9.562;2023-11-19T11:48:09;17.00;;;3.45;;
57707;SDS011;43540;51.690;9.562;2023-11-19T11:50:52;17.38;;;4.43;;
57707;SDS011;43540;51.690;9.562;2023-11-19T11:53:21;21.65;;;3.95;;
57707;SDS011;43540;51.690;9.562;2023-11-19T11:58:18;16.50;;;4.00;;
57707;SDS011;43540;51.690;9.562;2023-11-19T12:01:00;16.92;;;4.15;;
57707;SDS011;43540;51.690;9.562;2023-11-19T12:03:28;18.65;;;3.83;;
57707;SDS011;43540;51.690;9.562;2023-11-19T12:05:56;17.38;;;3.92;;
57707;SDS011;43540;51.690;9.562;2023-11-19T12:08:25;19.13;;;3.97;;
57707;SDS011;43540;51.690;9.562;2023-11-19T12:10:54;17.33;;;4.13;;
57707;SDS011;43540;51.690;9.562;2023-11-19T12:13:29;14.10;;;3.65;;
57707;SDS011;43540;51.690;9.562;2023-11-19T12:16:10;17.10;;;4.30;;
57707;SDS011;43540;51.690;9.562;2023-11-19T12:18:38;15.77;;;3.70;;
57707;SDS011;43540;51.690;9.562;2023-11-19T12:21:06;14.02;;;3.40;;
57707;SDS011;43540;51.690;9.562;2023-11-19T12:23:43;19.13;;;3.85;;
57707;SDS011;43540;51.690;9.562;2023-11-19T12:26:20;19.50;;;3.63;;
57707;SDS011;43540;51.690;9.562;2023-11-19T12:28:58;14.85;;;3.22;;
57707;SDS011;43540;51.690;9.562;2023-11-19T12:31:27;20.88;;;3.65;;
57707;SDS011;43540;51.690;9.562;2023-11-19T12:33:55;19.80;;;4.47;;
57707;SDS011;43540;51.690;9.562;2023-11-19T12:36:22;15.32;;;3.85;;
57707;SDS011;43540;51.690;9.562;2023-11-19T12:38:49;16.55;;;3.42;;
57707;SDS011;43540;51.690;9.562;2023-11-19T12:41:15;15.73;;;3.20;;
57707;SDS011;43540;51.690;9.562;2023-11-19T12:43:47;15.77;;;3.10;;
57707;SDS011;43540;51.690;9.562;2023-11-19T12:46:23;15.57;;;3.15;;
57707;SDS011;43540;51.690;9.562;2023-11-19T12:48:50;22.17;;;3.87;;
57707;SDS011;43540;51.690;9.562;2023-11-19T12:51:18;19.70;;;4.50;;
57707;SDS011;43540;51.690;9.562;2023-11-19T12:53:50;18.65;;;3.67;;
57707;SDS011;43540;51.690;9.562;2023-11-19T12:56:27;18.45;;;3.83;;
57707;SDS011;43540;51.690;9.562;2023-11-19T12:59:11;23.77;;;5.00;;
57707;SDS011;43540;51.690;9.562;2023-11-19T13:01:56;19.48;;;4.22;;
57707;SDS011;43540;51.690;9.562;2023-11-19T13:04:29;19.25;;;5.00;;
57707;SDS011;43540;51.690;9.562;2023-11-19T13:06:57;15.77;;;4.32;;
57707;SDS011;43540;51.690;9.562;2023-11-19T13:09:27;17.27;;;3.38;;
57707;SDS011;43540;51.690;9.562;2023-11-19T13:11:55;14.25;;;3.42;;
57707;SDS011;43540;51.690;9.562;2023-11-19T13:14:23;15.00;;;3.17;;
57707;SDS011;43540;51.690;9.562;2023-11-19T13:16:52;11.85;;;2.88;;
57707;SDS011;43540;51.690;9.562;2023-11-19T13:19:20;13.57;;;2.67;;
57707;SDS011;43540;51.690;9.562;2023-11-19T13:21:50;15.32;;;3.40;;
57707;SDS011;43540;51.690;9.562;2023-11-19T13:24:19;12.70;;;3.60;;
57707;SDS011;43540;51.690;9.562;2023-11-19T13:26:46;16.17;;;3.90;;
57707;SDS011;43540;51.690;9.562;2023-11-19T13:29:16;10.57;;;3.80;;
57707;SDS011;43540;51.690;9.562;2023-11-19T13:31:43;14.80;;;3.28;;
57707;SDS011;43540;51.690;9.562;2023-11-19T13:34:09;11.18;;;3.00;;
57707;SDS011;43540;51.690;9.562;2023-11-19T13:36:40;19.33;;;3.50;;
57707;SDS011;43540;51.690;9.562;2023-11-19T13:39:06;17.10;;;3.45;;
57707;SDS011;43540;51.690;9.562;2023-11-19T13:41:33;10.20;;;3.40;;
57707;SDS011;43540;51.690;9.562;2023-11-19T13:44:00;13.63;;;4.30;;
57707;SDS011;43540;51.690;9.562;2023-11-19T13:46:27;14.70;;;4.28;;
57707;SDS011;43540;51.690;9.562;2023-11-19T13:48:54;19.95;;;5.18;;
57707;SDS011;43540;51.690;9.562;2023-11-19T13:51:21;14.93;;;3.85;;
57707;SDS011;43540;51.690;9.562;2023-11-19T13:53:48;16.95;;;5.75;;
57707;SDS011;43540;51.690;9.562;2023-11-19T13:56:17;18.80;;;4.65;;
57707;SDS011;43540;51.690;9.562;2023-11-19T13:58:44;14.30;;;3.50;;
57707;SDS011;43540;51.690;9.562;2023-11-19T14:01:11;18.13;;;3.83;;
57707;SDS011;43540;51.690;9.562;2023-11-19T14:03:39;15.52;;;4.05;;
57707;SDS011;43540;51.690;9.562;2023-11-19T14:06:06;13.98;;;3.83;;
57707;SDS011;43540;51.690;9.562;2023-11-19T14:08:34;17.13;;;4.18;;
57707;SDS011;43540;51.690;9.562;2023-11-19T14:11:01;14.65;;;3.85;;
57707;SDS011;43540;51.690;9.562;2023-11-19T14:13:28;15.88;;;4.15;;
57707;SDS011;43540;51.690;9.562;2023-11-19T14:15:55;16.85;;;3.70;;
57707;SDS011;43540;51.690;9.562;2023-11-19T14:18:22;12.55;;;3.70;;
57707;SDS011;43540;51.690;9.562;2023-11-19T14:20:49;15.55;;;4.28;;
57707;SDS011;43540;51.690;9.562;2023-11-19T14:23:15;14.10;;;3.83;;
57707;SDS011;43540;51.690;9.562;2023-11-19T14:25:42;14.68;;;3.72;;
57707;SDS011;43540;51.690;9.562;2023-11-19T14:28:09;18.17;;;4.38;;
57707;SDS011;43540;51.690;9.562;2023-11-19T14:30:36;13.57;;;4.05;;
57707;SDS011;43540;51.690;9.562;2023-11-19T14:33:03;13.75;;;4.00;;
57707;SDS011;43540;51.690;9.562;2023-11-19T14:35:31;15.88;;;4.55;;
57707;SDS011;43540;51.690;9.562;2023-11-19T14:37:59;16.08;;;4.80;;
57707;SDS011;43540;51.690;9.562;2023-11-19T14:40:26;16.30;;;4.28;;
57707;SDS011;43540;51.690;9.562;2023-11-19T14:42:55;12.20;;;3.60;;
57707;SDS011;43540;51.690;9.562;2023-11-19T14:45:22;12.57;;;4.50;;
57707;SDS011;43540;51.690;9.562;2023-11-19T14:47:48;19.65;;;5.32;;
57707;SDS011;43540;51.690;9.562;2023-11-19T14:50:15;15.18;;;4.97;;
57707;SDS011;43540;51.690;9.562;2023-11-19T14:52:42;15.73;;;3.90;;
57707;SDS011;43540;51.690;9.562;2023-11-19T14:55:09;13.18;;;3.28;;
57707;SDS011;43540;51.690;9.562;2023-11-19T14:57:36;17.85;;;3.42;;
57707;SDS011;43540;51.690;9.562;2023-11-19T15:00:06;17.25;;;3.80;;
57707;SDS011;43540;51.690;9.562;2023-11-19T15:02:43;16.38;;;3.70;;
57707;SDS011;43540;51.690;9.562;2023-11-19T15:05:10;16.33;;;2.90;;
57707;SDS011;43540;51.690;9.562;2023-11-19T15:07:37;16.25;;;3.50;;
57707;SDS011;43540;51.690;9.562;2023-11-19T15:10:04;10.65;;;2.75;;